Startpagina
METAR-TAF:

METAR-TAF

Vliegvelden :

Nadi, Fiji

Nadi International Airport

breedte: 17-45S, lengte: 177-27E, hoogte: 13 m

Actueel weer

Dit bericht is 39 minuten geleden gemaakt, om 00:00 UTC
Wind 11 kt uit het zuidzuidoosten
Temperatuur 27°C
Vochtigheid 48%
Druk 1014 hPa
Zicht 10 km of meer
Verspreide wolken op 3000 ft

METAR: NFFN 260000Z 15011KT 9999 SCT030 27/15 Q1014 NOSIG

Tijdstip: 12:39 (00:39 UTC)

Verwachting

Dit bericht is 1 uur en het 37 minuten geleden gemaakt, om 23:02 UTC
Verwachting geldig van 26 om 00 UTC tot 26 om 24 UTC
Wind 10 kt uit het zuidoosten
Zicht 10 km of meer
Verspreide wolken op 2500 ft
Verspreide wolken op 4500 ft

TAF: NFFN 252302Z 2600/2624 13010KT 9999 SCT025 SCT045

Waarnemingen en weersverwachtingen van meer dan 4000 vliegvelden (METAR en TAF).

De beschikbare stations zijn de gele en rode punten op de kaart.

Ga met uw muis naar het station om de naam te zien.

Klik dan om waarnemingen en weersverwachtingen te zien.

kaart wijzigen: klik op de groene knoppen met een zwart kruis om in te zoomen, op de groene knop met een streepje om uit te zoomen of op de groene pijlen voor aangrenzende kaarten.


METAR-TAF: